Alev Kaman — TCCN5 — position and weather

sailwx.info

Track history (hours):
 
Tides and Currents Weather Stations Pressure Air Temp Water Temp Dewpoint Dewpoint Depression Visibility Wind Speed Wind Dir Waves Ship Positions

Alev Kaman

Last reported at 2016-May-26 21:30 UTC. Time now 2016-May-27 12:18 UTC.
Position N 40°45' E 029°32'.

Length 93 m; draft 4.5 m.

Type: Tanker. MMSI: 271000716.

Date/timePositionNaut miles runAvg speedWind from/ knotsBaromVisibWave heightAir tempDewpointWater temp
2016-May-26 21:30N 40°45' E 029°32'1010.3
2016-May-26 20:33N 40°45' E 029°20'1110.7
2016-May-26 19:33N 40°48' E 029°06'1010.1
2016-May-26 18:31N 40°56' E 028°57'338 6.9
2016-May-24 17:28N 41°15' E 036°25'0 0.0
2016-May-24 16:33N 41°15' E 036°25'  
2016-May-21 05:18N 40°59' E 028°60'6 6.8
2016-May-21 04:30N 40°54' E 028°57'7 7.8
2016-May-21 03:33N 40°47' E 028°52'6 2.9
2016-May-21 01:28N 40°42' E 028°48'1 1.1
2016-May-21 00:33N 40°42' E 028°49'1 1.1
2016-May-20 23:30N 40°43' E 028°51'1 1.2
2016-May-20 22:19N 40°43' E 028°52'3 0.8
2016-May-20 18:25N 40°46' E 028°55'5 1.7
2016-May-20 15:30N 40°47' E 029°01'1010.3
2016-May-20 14:33N 40°46' E 029°14'10 9.5
2016-May-20 13:33N 40°45' E 029°27'  
Track history (hours):
 
Tides and Currents Weather Stations Pressure Air Temp Water Temp Dewpoint Dewpoint Depression Visibility Wind Speed Wind Dir Waves Ship Positions

Alev Kaman

Last reported at 2016-May-26 21:30 UTC. Time now 2016-May-27 12:18 UTC.
Position N 40°45' E 029°32'.

Length 93 m; draft 4.5 m.

Type: Tanker. MMSI: 271000716.

Date/timePositionNaut miles runAvg speedWind from/ knotsBaromVisibWave heightAir tempDewpointWater temp
2016-May-26 21:30N 40°45' E 029°32'1010.3
2016-May-26 20:33N 40°45' E 029°20'1110.7
2016-May-26 19:33N 40°48' E 029°06'1010.1
2016-May-26 18:31N 40°56' E 028°57'338 6.9
2016-May-24 17:28N 41°15' E 036°25'0 0.0
2016-May-24 16:33N 41°15' E 036°25'  
2016-May-21 05:18N 40°59' E 028°60'6 6.8
2016-May-21 04:30N 40°54' E 028°57'7 7.8
2016-May-21 03:33N 40°47' E 028°52'6 2.9
2016-May-21 01:28N 40°42' E 028°48'1 1.1
2016-May-21 00:33N 40°42' E 028°49'1 1.1
2016-May-20 23:30N 40°43' E 028°51'1 1.2
2016-May-20 22:19N 40°43' E 028°52'3 0.8
2016-May-20 18:25N 40°46' E 028°55'5 1.7
2016-May-20 15:30N 40°47' E 029°01'1010.3
2016-May-20 14:33N 40°46' E 029°14'10 9.5
2016-May-20 13:33N 40°45' E 029°27'  

Dump ship's entire track history